Time;durP1;ratioP1;P1;durP2;ratioP2;P2;SDS_P1;SDS_P2;PMS_P1;PMS_P2;Temp;Humidity;BMP_temperature;BMP_pressure;BME280_temperature;BME280_humidity;BME280_pressure;Samples;Min_cycle;Max_cycle;Signal;HPM_P1;HPM_P2
2024/02/24 00:01:56;;;;;;;14.52;10.10;;;;;;;;;;6315993;28;24514;-83
2024/02/24 00:05:08;;;;;;;13.55;10.50;;;;;;;;;;6322751;28;24507;-82
2024/02/24 00:08:25;;;;;;;15.40;11.00;;;;;;;;;;6319946;28;24561;-81
2024/02/24 00:11:36;;;;;;;13.82;11.10;;;;;;;;;;6324145;28;25128;-83
2024/02/24 00:14:41;;;;;;;16.95;10.50;;;;;;;;;;6318320;28;24477;-83
2024/02/24 00:17:46;;;;;;;17.38;10.98;;;;;;;;;;6322544;28;24418;-83
2024/02/24 00:20:50;;;;;;;16.15;11.10;;;;;;;;;;6323470;28;24835;-84
2024/02/24 00:23:54;;;;;;;14.05;10.02;;;;;;;;;;6327732;28;24801;-84
2024/02/24 00:26:56;;;;;;;14.38;10.25;;;;;;;;;;6322690;28;24882;-83
2024/02/24 00:30:02;;;;;;;14.10;9.40;;;;;;;;;;6322306;28;24798;-81
2024/02/24 00:33:13;;;;;;;12.05;8.80;;;;;;;;;;6322370;28;24476;-83
2024/02/24 00:36:16;;;;;;;13.00;9.40;;;;;;;;;;6319566;28;24423;-81
2024/02/24 00:39:18;;;;;;;12.70;9.07;;;;;;;;;;6322855;28;24434;-83
2024/02/24 00:42:20;;;;;;;11.30;8.73;;;;;;;;;;6319444;28;24494;-84
2024/02/24 00:45:23;;;;;;;12.93;8.80;;;;;;;;;;6320500;28;24945;-84
2024/02/24 00:48:24;;;;;;;12.17;8.97;;;;;;;;;;6318995;28;25064;-83
2024/02/24 00:51:38;;;;;;;13.00;8.82;;;;;;;;;;6322864;28;24487;-82
2024/02/24 00:54:42;;;;;;;12.15;8.43;;;;;;;;;;6320224;28;24464;-84
2024/02/24 00:57:44;;;;;;;10.75;7.47;;;;;;;;;;6317449;28;24430;-85
2024/02/24 01:00:46;;;;;;;10.77;7.40;;;;;;;;;;6318660;28;24620;-83
2024/02/24 01:03:50;;;;;;;9.57;7.03;;;;;;;;;;6320073;28;24425;-83
2024/02/24 01:06:54;;;;;;;9.15;6.32;;;;;;;;;;6323084;28;25213;-82
2024/02/24 01:10:00;;;;;;;9.20;6.80;;;;;;;;;;6321909;28;24423;-84
2024/02/24 01:13:05;;;;;;;10.02;6.80;;;;;;;;;;6321158;28;24426;-82
2024/02/24 01:16:18;;;;;;;8.85;5.90;;;;;;;;;;6279552;28;24628;-81
2024/02/24 01:19:23;;;;;;;8.50;6.05;;;;;;;;;;6309272;28;24447;-81
2024/02/24 01:22:26;;;;;;;9.10;5.88;;;;;;;;;;6320164;28;24422;-82
2024/02/24 01:25:34;;;;;;;8.18;5.90;;;;;;;;;;6319202;28;24517;-82
2024/02/24 01:28:37;;;;;;;7.97;5.67;;;;;;;;;;6320786;28;24497;-83
2024/02/24 01:31:49;;;;;;;7.90;6.15;;;;;;;;;;6321298;28;24422;-84
2024/02/24 01:34:51;;;;;;;8.73;6.03;;;;;;;;;;6320086;28;24429;-83
2024/02/24 01:37:59;;;;;;;8.55;5.97;;;;;;;;;;6319252;28;24441;-83
2024/02/24 01:41:01;;;;;;;9.77;6.70;;;;;;;;;;6322253;28;24844;-83
2024/02/24 01:44:03;;;;;;;9.10;6.38;;;;;;;;;;6326036;28;24817;-82
2024/02/24 01:47:05;;;;;;;8.82;6.30;;;;;;;;;;6330623;27;24430;-83
2024/02/24 01:50:09;;;;;;;11.23;6.73;;;;;;;;;;6323599;28;24972;-83
2024/02/24 01:53:13;;;;;;;9.52;6.60;;;;;;;;;;6329102;28;24493;-85
2024/02/24 01:56:24;;;;;;;9.75;6.70;;;;;;;;;;6324351;28;24411;-82
2024/02/24 01:59:57;;;;;;;10.63;7.07;;;;;;;;;;6317821;28;24505;-82
2024/02/24 02:03:08;;;;;;;10.55;7.03;;;;;;;;;;6326438;27;24591;-83
2024/02/24 02:06:13;;;;;;;13.98;9.35;;;;;;;;;;6327130;28;24442;-84
2024/02/24 02:09:16;;;;;;;15.87;9.60;;;;;;;;;;6323855;28;24868;-83
2024/02/24 02:12:18;;;;;;;17.95;10.80;;;;;;;;;;6325815;28;24432;-83
2024/02/24 02:15:20;;;;;;;23.20;13.70;;;;;;;;;;6324961;28;25683;-81
2024/02/24 02:18:22;;;;;;;24.60;14.95;;;;;;;;;;6321894;28;24525;-82
2024/02/24 02:21:24;;;;;;;23.95;15.27;;;;;;;;;;6324194;28;24445;-82
2024/02/24 02:24:28;;;;;;;30.15;16.23;;;;;;;;;;6323109;28;24426;-81
2024/02/24 02:27:30;;;;;;;32.33;19.23;;;;;;;;;;6321221;28;24410;-82
2024/02/24 02:30:32;;;;;;;33.60;19.02;;;;;;;;;;6320198;28;24630;-81
2024/02/24 02:33:34;;;;;;;33.78;19.90;;;;;;;;;;6318475;28;24837;-83
2024/02/24 02:36:36;;;;;;;37.03;21.37;;;;;;;;;;6317587;28;24430;-82
2024/02/24 02:39:39;;;;;;;38.00;21.55;;;;;;;;;;6322749;28;24449;-82
2024/02/24 02:42:47;;;;;;;41.05;23.77;;;;;;;;;;6323829;28;24432;-81
2024/02/24 02:45:49;;;;;;;41.05;23.42;;;;;;;;;;6324303;28;24901;-81
2024/02/24 02:48:51;;;;;;;41.30;23.42;;;;;;;;;;6326622;28;24421;-81
2024/02/24 02:51:53;;;;;;;42.80;24.33;;;;;;;;;;6321753;28;24433;-82
2024/02/24 02:54:56;;;;;;;45.50;23.33;;;;;;;;;;6325537;28;24421;-79
2024/02/24 02:57:58;;;;;;;43.65;23.67;;;;;;;;;;6327605;28;25591;-82
2024/02/24 03:01:00;;;;;;;45.07;23.87;;;;;;;;;;6324432;28;24450;-81
2024/02/24 03:04:01;;;;;;;44.92;23.75;;;;;;;;;;6324590;28;24423;-80
2024/02/24 03:07:03;;;;;;;44.70;25.00;;;;;;;;;;6322366;28;24445;-82
2024/02/24 03:10:10;;;;;;;46.67;24.77;;;;;;;;;;6322771;28;24430;-82
2024/02/24 03:13:13;;;;;;;48.03;25.15;;;;;;;;;;6326616;28;24472;-82
2024/02/24 03:16:18;;;;;;;50.78;25.88;;;;;;;;;;6325574;28;24434;-81
2024/02/24 03:19:20;;;;;;;52.20;26.42;;;;;;;;;;6320148;28;24435;-82
2024/02/24 03:22:22;;;;;;;49.90;26.30;;;;;;;;;;6324320;28;24824;-83
2024/02/24 03:25:25;;;;;;;48.80;26.35;;;;;;;;;;6323574;28;24506;-82
2024/02/24 03:28:27;;;;;;;49.78;26.58;;;;;;;;;;6323017;28;24805;-82
2024/02/24 03:31:29;;;;;;;47.37;25.93;;;;;;;;;;6325018;28;24428;-83
2024/02/24 03:34:31;;;;;;;45.67;25.65;;;;;;;;;;6324858;28;24421;-82
2024/02/24 03:37:35;;;;;;;49.10;26.23;;;;;;;;;;6321999;28;24426;-82
2024/02/24 03:40:38;;;;;;;46.92;25.08;;;;;;;;;;6320479;28;24480;-82
2024/02/24 03:43:40;;;;;;;49.97;26.25;;;;;;;;;;6325532;28;24414;-83
2024/02/24 03:46:42;;;;;;;47.87;25.70;;;;;;;;;;6324039;28;24424;-81
2024/02/24 03:49:44;;;;;;;45.95;25.65;;;;;;;;;;6325054;28;24482;-82
2024/02/24 03:52:46;;;;;;;46.20;25.13;;;;;;;;;;6320097;28;24421;-82
2024/02/24 03:55:50;;;;;;;45.28;24.98;;;;;;;;;;6323204;28;24495;-81
2024/02/24 03:58:52;;;;;;;45.08;24.95;;;;;;;;;;6319625;28;24464;-82
2024/02/24 04:02:00;;;;;;;47.30;25.15;;;;;;;;;;6317378;28;24425;-81
2024/02/24 04:05:02;;;;;;;47.77;25.27;;;;;;;;;;6316759;28;24809;-81
2024/02/24 04:08:04;;;;;;;47.15;25.90;;;;;;;;;;6317463;28;24529;-82
2024/02/24 04:11:11;;;;;;;46.33;25.17;;;;;;;;;;6322735;28;24419;-83
2024/02/24 04:14:16;;;;;;;44.33;24.98;;;;;;;;;;6322168;28;24422;-81
2024/02/24 04:17:19;;;;;;;47.27;23.90;;;;;;;;;;6322054;28;24912;-81
2024/02/24 04:20:22;;;;;;;43.83;23.90;;;;;;;;;;6321338;28;24466;-82
2024/02/24 04:23:24;;;;;;;41.30;24.13;;;;;;;;;;6320965;28;24554;-81
2024/02/24 04:26:27;;;;;;;45.25;24.95;;;;;;;;;;6322604;28;24419;-82
2024/02/24 04:29:29;;;;;;;43.47;24.70;;;;;;;;;;6319328;28;24429;-81
2024/02/24 04:32:31;;;;;;;42.95;23.52;;;;;;;;;;6322850;28;24897;-81
2024/02/24 04:35:33;;;;;;;46.38;24.75;;;;;;;;;;6323835;28;24449;-83
2024/02/24 04:38:35;;;;;;;44.57;24.87;;;;;;;;;;6324642;28;24419;-81
2024/02/24 04:41:38;;;;;;;43.90;25.38;;;;;;;;;;6324013;28;24496;-81
2024/02/24 04:44:40;;;;;;;41.85;24.48;;;;;;;;;;6321935;28;24601;-83
2024/02/24 04:47:42;;;;;;;44.72;25.40;;;;;;;;;;6324441;28;24430;-83
2024/02/24 04:50:44;;;;;;;44.58;24.67;;;;;;;;;;6326646;28;24472;-81
2024/02/24 04:53:49;;;;;;;44.50;25.03;;;;;;;;;;6324782;28;24482;-81
2024/02/24 04:56:52;;;;;;;44.08;25.05;;;;;;;;;;6326127;28;24841;-81
2024/02/24 04:59:54;;;;;;;45.60;25.27;;;;;;;;;;6322363;28;24437;-80
2024/02/24 05:02:56;;;;;;;49.73;26.30;;;;;;;;;;6325296;28;24421;-82
2024/02/24 05:05:58;;;;;;;45.10;24.73;;;;;;;;;;6324511;28;24421;-83
2024/02/24 05:09:00;;;;;;;46.92;26.67;;;;;;;;;;6321120;28;24463;-80
2024/02/24 05:12:06;;;;;;;51.55;27.98;;;;;;;;;;6321033;28;24438;-82
2024/02/24 05:15:09;;;;;;;52.58;27.50;;;;;;;;;;6321861;28;24422;-81
2024/02/24 05:18:11;;;;;;;49.83;27.05;;;;;;;;;;6320253;28;24422;-81
2024/02/24 05:21:21;;;;;;;50.50;27.52;;;;;;;;;;6323320;28;24434;-83
2024/02/24 05:24:25;;;;;;;54.05;28.40;;;;;;;;;;6323818;28;24456;-79
2024/02/24 05:27:30;;;;;;;55.90;28.90;;;;;;;;;;6319688;28;24851;-82
2024/02/24 05:30:32;;;;;;;53.90;29.70;;;;;;;;;;6318014;28;24496;-82
2024/02/24 05:33:34;;;;;;;54.85;28.75;;;;;;;;;;6316754;28;24682;-81
2024/02/24 05:36:36;;;;;;;54.53;28.93;;;;;;;;;;6328000;28;24467;-81
2024/02/24 05:39:38;;;;;;;56.90;28.80;;;;;;;;;;6319519;28;24828;-82
2024/02/24 05:42:42;;;;;;;54.10;29.35;;;;;;;;;;6318436;28;24445;-83
2024/02/24 05:45:44;;;;;;;55.83;29.30;;;;;;;;;;6321365;28;24460;-81
2024/02/24 05:48:46;;;;;;;57.00;29.45;;;;;;;;;;6318843;28;24422;-82
2024/02/24 05:51:48;;;;;;;57.33;30.20;;;;;;;;;;6320229;28;24476;-82
2024/02/24 05:54:56;;;;;;;58.90;30.50;;;;;;;;;;6321371;28;24677;-86
2024/02/24 05:57:59;;;;;;;58.50;30.02;;;;;;;;;;6317759;28;24680;-82
2024/02/24 06:01:02;;;;;;;59.92;30.30;;;;;;;;;;6313770;28;24429;-82
2024/02/24 06:04:04;;;;;;;56.67;29.45;;;;;;;;;;6320401;28;25022;-82
2024/02/24 06:07:06;;;;;;;54.30;29.75;;;;;;;;;;6323952;28;24453;-82
2024/02/24 06:10:12;;;;;;;53.05;28.15;;;;;;;;;;6317388;28;24434;-81
2024/02/24 06:13:15;;;;;;;57.87;29.40;;;;;;;;;;6321198;28;24585;-83
2024/02/24 06:16:17;;;;;;;51.65;28.50;;;;;;;;;;6325579;28;24434;-83
2024/02/24 06:19:19;;;;;;;53.40;28.97;;;;;;;;;;6324245;28;24500;-82
2024/02/24 06:22:21;;;;;;;50.47;28.20;;;;;;;;;;6315172;28;24440;-80
2024/02/24 06:25:22;;;;;;;54.72;28.45;;;;;;;;;;6321563;28;24437;-83
2024/02/24 06:28:26;;;;;;;54.90;28.75;;;;;;;;;;6328985;28;24407;-85
2024/02/24 06:31:27;;;;;;;52.33;28.73;;;;;;;;;;6327653;28;24455;-81
2024/02/24 06:34:29;;;;;;;54.47;28.57;;;;;;;;;;6321466;28;24423;-83
2024/02/24 06:37:34;;;;;;;55.47;29.35;;;;;;;;;;6328740;28;24412;-82
2024/02/24 06:40:36;;;;;;;50.63;27.98;;;;;;;;;;6322972;28;24417;-81
2024/02/24 06:43:39;;;;;;;49.35;26.73;;;;;;;;;;6330757;28;24411;-81
2024/02/24 06:46:47;;;;;;;46.30;25.33;;;;;;;;;;6323923;28;24490;-81
2024/02/24 06:49:49;;;;;;;40.92;23.52;;;;;;;;;;6320349;28;24655;-83
2024/02/24 06:52:50;;;;;;;39.15;22.60;;;;;;;;;;6325968;28;24486;-81
2024/02/24 06:55:52;;;;;;;38.70;20.70;;;;;;;;;;6325167;28;24626;-82
2024/02/24 06:58:56;;;;;;;35.65;21.10;;;;;;;;;;6322201;28;24411;-83
2024/02/24 07:01:57;;;;;;;36.17;21.02;;;;;;;;;;6318964;28;24512;-82
2024/02/24 07:05:02;;;;;;;36.30;20.30;;;;;;;;;;6317818;28;24489;-81
2024/02/24 07:08:04;;;;;;;36.88;20.20;;;;;;;;;;6316468;28;24885;-81
2024/02/24 07:11:06;;;;;;;35.17;18.73;;;;;;;;;;6322262;28;24631;-82
2024/02/24 07:14:11;;;;;;;30.73;18.63;;;;;;;;;;6320155;28;24406;-83
2024/02/24 07:17:13;;;;;;;31.08;18.60;;;;;;;;;;6321300;28;24429;-83
2024/02/24 07:20:15;;;;;;;30.00;17.73;;;;;;;;;;6323426;28;24433;-83
2024/02/24 07:23:17;;;;;;;25.63;15.77;;;;;;;;;;6329454;28;24617;-84
2024/02/24 07:26:20;;;;;;;24.33;14.87;;;;;;;;;;6322818;28;24441;-84
2024/02/24 07:29:23;;;;;;;23.02;14.30;;;;;;;;;;6321718;28;24429;-82
2024/02/24 07:32:25;;;;;;;22.02;12.98;;;;;;;;;;6326311;28;24490;-82
2024/02/24 07:35:27;;;;;;;20.05;11.88;;;;;;;;;;6320479;28;24433;-83
2024/02/24 07:38:29;;;;;;;17.25;10.80;;;;;;;;;;6329070;28;24424;-82
2024/02/24 07:41:31;;;;;;;18.25;11.13;;;;;;;;;;6323116;28;24433;-82
2024/02/24 07:44:39;;;;;;;17.55;11.07;;;;;;;;;;6322428;28;24459;-82
2024/02/24 07:47:41;;;;;;;16.65;9.65;;;;;;;;;;6312113;28;24437;-83
2024/02/24 07:50:44;;;;;;;17.60;10.23;;;;;;;;;;6314231;28;24428;-83
2024/02/24 07:53:49;;;;;;;16.25;10.10;;;;;;;;;;6324073;28;24468;-82
2024/02/24 07:56:51;;;;;;;15.13;9.77;;;;;;;;;;6327868;28;24859;-82
2024/02/24 07:59:55;;;;;;;16.23;10.00;;;;;;;;;;6320185;28;24924;-82
2024/02/24 08:02:57;;;;;;;16.87;10.33;;;;;;;;;;6321096;28;24560;-82
2024/02/24 08:05:59;;;;;;;15.48;10.32;;;;;;;;;;6320276;28;24481;-82
2024/02/24 08:09:01;;;;;;;17.90;10.82;;;;;;;;;;6318565;28;24531;-84
2024/02/24 08:12:03;;;;;;;15.30;9.83;;;;;;;;;;6323515;28;24474;-85
2024/02/24 08:22:00;;;;;;;15.63;10.05;;;;;;;;;;6326900;28;24419;-85
2024/02/24 08:25:05;;;;;;;15.70;10.48;;;;;;;;;;6320131;28;24576;-85
2024/02/24 08:28:13;;;;;;;16.60;10.18;;;;;;;;;;6320986;28;24508;-84
2024/02/24 08:31:16;;;;;;;14.60;9.68;;;;;;;;;;6314666;28;24438;-85
2024/02/24 08:34:18;;;;;;;16.25;10.00;;;;;;;;;;6320888;28;24821;-84
2024/02/24 08:37:20;;;;;;;14.30;10.20;;;;;;;;;;6320445;28;24503;-86
2024/02/24 08:40:26;;;;;;;15.93;10.23;;;;;;;;;;6318808;28;24416;-83
2024/02/24 08:43:27;;;;;;;14.70;10.03;;;;;;;;;;6319512;28;24414;-86
2024/02/24 08:46:31;;;;;;;14.30;9.48;;;;;;;;;;6316445;28;24515;-84
2024/02/24 08:49:33;;;;;;;14.30;9.63;;;;;;;;;;6324742;28;24828;-84
2024/02/24 08:52:38;;;;;;;15.00;9.63;;;;;;;;;;6328930;28;24816;-84
2024/02/24 08:55:40;;;;;;;14.65;9.20;;;;;;;;;;6319030;28;24425;-85
2024/02/24 08:58:42;;;;;;;14.85;8.95;;;;;;;;;;6323559;28;24701;-85
2024/02/24 09:01:48;;;;;;;14.30;8.57;;;;;;;;;;6320098;28;24490;-83
2024/02/24 09:04:58;;;;;;;12.47;8.17;;;;;;;;;;6324963;28;24848;-84
2024/02/24 09:08:01;;;;;;;12.10;8.13;;;;;;;;;;6328065;28;24425;-84
2024/02/24 09:11:08;;;;;;;11.97;7.73;;;;;;;;;;6320418;28;24489;-84
2024/02/24 09:14:16;;;;;;;11.10;7.70;;;;;;;;;;6319810;28;24881;-83
2024/02/24 09:17:20;;;;;;;13.63;8.27;;;;;;;;;;6309171;28;24421;-83
2024/02/24 09:20:22;;;;;;;14.40;7.97;;;;;;;;;;6313437;28;24464;-85
2024/02/24 09:26:57;;;;;;;11.85;7.25;;;;;;;;;;6306140;28;24440;-83
2024/02/24 09:30:13;;;;;;;10.40;6.82;;;;;;;;;;6324436;28;24444;-84
2024/02/24 09:33:31;;;;;;;10.83;6.07;;;;;;;;;;6321581;28;24492;-85
2024/02/24 09:36:41;;;;;;;10.45;6.22;;;;;;;;;;6326595;28;24430;-86
2024/02/24 09:39:49;;;;;;;10.63;6.05;;;;;;;;;;6322381;28;24493;-83
2024/02/24 09:42:54;;;;;;;11.43;6.45;;;;;;;;;;6306448;28;24813;-83
2024/02/24 09:45:56;;;;;;;11.07;7.00;;;;;;;;;;6320382;28;24445;-83
2024/02/24 09:49:00;;;;;;;10.18;6.70;;;;;;;;;;6320962;28;24430;-83
2024/02/24 09:52:04;;;;;;;10.15;6.57;;;;;;;;;;6317064;28;24410;-84
2024/02/24 09:55:08;;;;;;;9.45;6.47;;;;;;;;;;6323073;28;24429;-83
2024/02/24 09:58:11;;;;;;;9.10;6.18;;;;;;;;;;6318572;28;24532;-83
2024/02/24 10:01:15;;;;;;;10.02;5.78;;;;;;;;;;6321361;28;24862;-84
2024/02/24 10:04:19;;;;;;;8.60;5.00;;;;;;;;;;6322638;28;24466;-83
2024/02/24 10:07:29;;;;;;;8.05;4.35;;;;;;;;;;6322187;28;24490;-83
2024/02/24 10:10:37;;;;;;;8.52;3.88;;;;;;;;;;6323262;28;24463;-86
2024/02/24 10:13:41;;;;;;;6.45;3.35;;;;;;;;;;6325037;28;24496;-84
2024/02/24 10:16:46;;;;;;;7.78;3.20;;;;;;;;;;6327392;28;24421;-85
2024/02/24 10:19:51;;;;;;;6.57;3.30;;;;;;;;;;6328885;28;24499;-85
2024/02/24 10:22:53;;;;;;;8.13;3.25;;;;;;;;;;6324997;28;24438;-85
2024/02/24 10:26:00;;;;;;;6.75;3.10;;;;;;;;;;6328097;28;24426;-86
2024/02/24 10:29:11;;;;;;;7.43;3.47;;;;;;;;;;6326625;28;25132;-87
2024/02/24 10:32:20;;;;;;;4.55;2.80;;;;;;;;;;6324983;28;24423;-85
2024/02/24 10:35:23;;;;;;;6.07;3.20;;;;;;;;;;6326366;28;24474;-86
2024/02/24 10:38:26;;;;;;;6.30;3.50;;;;;;;;;;6329109;28;24429;-85
2024/02/24 10:41:28;;;;;;;6.97;3.08;;;;;;;;;;6325828;28;24425;-83
2024/02/24 10:44:31;;;;;;;6.28;3.50;;;;;;;;;;6324079;28;24436;-82
2024/02/24 10:47:35;;;;;;;4.23;2.83;;;;;;;;;;6331357;28;24418;-84
2024/02/24 10:50:41;;;;;;;5.43;3.15;;;;;;;;;;6328129;28;24410;-83
2024/02/24 10:54:19;;;;;;;5.28;3.20;;;;;;;;;;6320280;28;24426;-85
2024/02/24 10:57:22;;;;;;;6.80;3.03;;;;;;;;;;6325428;28;24422;-84
2024/02/24 11:00:35;;;;;;;4.63;2.90;;;;;;;;;;6331195;28;24501;-84
2024/02/24 11:03:53;;;;;;;6.43;3.30;;;;;;;;;;6323083;28;24508;-83
2024/02/24 11:06:58;;;;;;;6.47;3.10;;;;;;;;;;6312075;28;24875;-83
2024/02/24 11:10:06;;;;;;;6.70;3.70;;;;;;;;;;6328837;28;24503;-84
2024/02/24 11:13:15;;;;;;;6.68;3.83;;;;;;;;;;6324357;28;24441;-81
2024/02/24 11:16:20;;;;;;;7.03;3.80;;;;;;;;;;6312580;28;24436;-84
2024/02/24 11:20:03;;;;;;;7.33;4.10;;;;;;;;;;6325723;28;24821;-84
2024/02/24 11:23:44;;;;;;;8.20;3.90;;;;;;;;;;6313336;28;24479;-85
2024/02/24 11:26:51;;;;;;;7.15;3.90;;;;;;;;;;6241464;28;24503;-84
2024/02/24 11:29:53;;;;;;;7.50;4.47;;;;;;;;;;6255019;28;24420;-85
2024/02/24 11:32:56;;;;;;;7.60;4.20;;;;;;;;;;6253147;28;24495;-83
2024/02/24 11:36:00;;;;;;;8.18;4.35;;;;;;;;;;6252469;28;24432;-84
2024/02/24 11:39:07;;;;;;;11.23;5.63;;;;;;;;;;6252500;28;24624;-85
2024/02/24 11:42:41;;;;;;;11.30;5.13;;;;;;;;;;6251149;28;24447;-85
2024/02/24 11:45:53;;;;;;;8.95;5.13;;;;;;;;;;6156779;28;24465;-83
2024/02/24 11:48:55;;;;;;;10.63;6.20;;;;;;;;;;6181643;28;24484;-85
2024/02/24 11:51:57;;;;;;;13.13;6.78;;;;;;;;;;6182818;28;24492;-84
2024/02/24 11:55:07;;;;;;;12.38;7.20;;;;;;;;;;6170897;28;24429;-83
2024/02/24 11:58:12;;;;;;;12.82;7.70;;;;;;;;;;6172922;28;24422;-83
2024/02/24 12:01:17;;;;;;;13.73;7.97;;;;;;;;;;6252509;28;24434;-84
2024/02/24 12:04:31;;;;;;;15.00;8.57;;;;;;;;;;6272187;28;24686;-83
2024/02/24 12:07:39;;;;;;;16.67;8.33;;;;;;;;;;6275133;28;24454;-83
2024/02/24 12:11:06;;;;;;;14.30;8.18;;;;;;;;;;6279543;28;24666;-83
2024/02/24 12:14:12;;;;;;;41.95;21.27;;;;;;;;;;6276531;28;24481;-84
2024/02/24 12:17:22;;;;;;;16.75;9.13;;;;;;;;;;6278329;28;24494;-84
2024/02/24 12:20:28;;;;;;;15.23;8.17;;;;;;;;;;6279411;28;24462;-83
2024/02/24 12:23:31;;;;;;;14.33;8.80;;;;;;;;;;6312363;28;24509;-82
2024/02/24 12:26:45;;;;;;;14.93;8.03;;;;;;;;;;6321905;28;24471;-84
2024/02/24 12:30:10;;;;;;;14.80;8.68;;;;;;;;;;6320109;28;24427;-85
2024/02/24 12:37:25;;;;;;;;;;;;;;;;;;;;;
2024/02/24 12:48:44;;;;;;;15.77;9.15;;;;;;;;;;6321973;28;24434;-87
2024/02/24 12:56:21;;;;;;;15.57;8.13;;;;;;;;;;6159275;28;24433;-83
2024/02/24 12:59:42;;;;;;;10.65;6.57;;;;;;;;;;6209360;28;24411;-84
2024/02/24 13:03:12;;;;;;;17.23;9.98;;;;;;;;;;6247613;28;24909;-83
2024/02/24 13:06:55;;;;;;;13.30;7.13;;;;;;;;;;6177094;28;24449;-84
2024/02/24 13:10:21;;;;;;;14.23;7.60;;;;;;;;;;6166748;28;24598;-85
2024/02/24 13:14:07;;;;;;;14.88;7.60;;;;;;;;;;6155056;28;24658;-83
2024/02/24 13:18:08;;;;;;;;;;;;;;;;;;;;;
2024/02/24 13:25:29;;;;;;;14.27;8.05;;;;;;;;;;6126794;28;24449;-85
2024/02/24 13:32:57;;;;;;;16.43;8.20;;;;;;;;;;6167299;28;24832;-86
2024/02/24 13:39:26;;;;;;;16.73;9.20;;;;;;;;;;6188839;28;24428;-83
2024/02/24 13:42:36;;;;;;;16.25;8.73;;;;;;;;;;6222546;28;24479;-83
2024/02/24 13:45:43;;;;;;;15.55;8.20;;;;;;;;;;6226570;28;24420;-83
2024/02/24 13:49:17;;;;;;;15.07;8.80;;;;;;;;;;6225948;28;24486;-83
2024/02/24 13:52:22;;;;;;;14.75;8.18;;;;;;;;;;6180978;28;24418;-84
2024/02/24 13:55:53;;;;;;;12.82;8.10;;;;;;;;;;6227745;28;24436;-84
2024/02/24 13:59:21;;;;;;;15.52;9.15;;;;;;;;;;6226526;28;24518;-85
2024/02/24 14:02:42;;;;;;;15.32;9.45;;;;;;;;;;6225858;28;24412;-83
2024/02/24 14:05:54;;;;;;;16.83;10.60;;;;;;;;;;6207075;28;24425;-83
2024/02/24 14:09:05;;;;;;;17.85;10.38;;;;;;;;;;6302832;28;24426;-85
2024/02/24 14:15:41;;;;;;;15.55;9.73;;;;;;;;;;6319442;28;24995;-84
2024/02/24 14:18:50;;;;;;;16.20;9.25;;;;;;;;;;6321095;28;24422;-85
2024/02/24 14:21:54;;;;;;;15.27;8.52;;;;;;;;;;6315255;28;24506;-84
2024/02/24 14:24:56;;;;;;;15.43;8.90;;;;;;;;;;6327304;28;24434;-84
2024/02/24 14:27:59;;;;;;;12.43;7.80;;;;;;;;;;6328464;28;24451;-84
2024/02/24 14:31:08;;;;;;;10.15;6.93;;;;;;;;;;6323172;28;24510;-83
2024/02/24 14:34:14;;;;;;;7.28;4.10;;;;;;;;;;6301409;28;24695;-85
2024/02/24 14:37:47;;;;;;;5.97;3.00;;;;;;;;;;6323437;28;24432;-87
2024/02/24 14:41:06;;;;;;;8.10;4.47;;;;;;;;;;6299742;28;24426;-86
2024/02/24 14:44:24;;;;;;;9.00;5.80;;;;;;;;;;6320306;28;24438;-86
2024/02/24 14:47:34;;;;;;;12.60;7.80;;;;;;;;;;6311286;28;24606;-86
2024/02/24 14:50:44;;;;;;;14.57;8.87;;;;;;;;;;6322773;28;24406;-85
2024/02/24 14:53:51;;;;;;;14.27;9.40;;;;;;;;;;6320584;28;24497;-87
2024/02/24 14:56:56;;;;;;;17.35;9.52;;;;;;;;;;6332235;28;24418;-85
2024/02/24 14:59:58;;;;;;;14.63;9.10;;;;;;;;;;6324193;28;24501;-84
2024/02/24 15:03:09;;;;;;;13.00;8.37;;;;;;;;;;6324621;28;24431;-85
2024/02/24 15:06:17;;;;;;;11.43;7.03;;;;;;;;;;6327567;28;24668;-84
2024/02/24 15:09:25;;;;;;;10.77;6.50;;;;;;;;;;6322400;28;24433;-85
2024/02/24 15:12:36;;;;;;;9.27;6.40;;;;;;;;;;6327536;28;24422;-85
2024/02/24 15:15:41;;;;;;;9.20;5.30;;;;;;;;;;6320707;28;24611;-86
2024/02/24 15:18:46;;;;;;;8.57;5.30;;;;;;;;;;6325941;28;24436;-86
2024/02/24 15:21:53;;;;;;;9.48;5.63;;;;;;;;;;6332032;27;24441;-88
2024/02/24 15:25:08;;;;;;;8.00;5.50;;;;;;;;;;6325170;28;24442;-86
2024/02/24 15:28:29;;;;;;;11.85;5.75;;;;;;;;;;6323613;28;24619;-86
2024/02/24 15:31:40;;;;;;;9.13;6.07;;;;;;;;;;6326352;28;24490;-87
2024/02/24 15:34:46;;;;;;;9.73;6.22;;;;;;;;;;6326968;28;24493;-85
2024/02/24 15:41:28;;;;;;;8.57;5.93;;;;;;;;;;6322270;28;25198;-87
2024/02/24 15:48:34;;;;;;;9.73;5.40;;;;;;;;;;6283733;28;24418;-86
2024/02/24 15:52:01;;;;;;;7.28;5.35;;;;;;;;;;6307227;27;24431;-85
2024/02/24 15:58:39;;;;;;;9.52;5.55;;;;;;;;;;6296767;28;25432;-87
2024/02/24 16:01:43;;;;;;;10.52;6.20;;;;;;;;;;6326636;28;24747;-84
2024/02/24 16:08:31;;;;;;;9.47;5.87;;;;;;;;;;6252374;28;24424;-86
2024/02/24 16:11:36;;;;;;;10.30;6.40;;;;;;;;;;6254389;28;24607;-86
2024/02/24 16:14:42;;;;;;;8.65;6.28;;;;;;;;;;6251497;28;24420;-86
2024/02/24 16:17:49;;;;;;;10.68;6.90;;;;;;;;;;6252033;28;24677;-87
2024/02/24 16:21:07;;;;;;;10.85;6.45;;;;;;;;;;6253859;28;24435;-89
2024/02/24 16:24:11;;;;;;;9.43;5.93;;;;;;;;;;6244906;28;24432;-86
2024/02/24 16:27:13;;;;;;;9.02;5.90;;;;;;;;;;6256736;28;24434;-87
2024/02/24 16:30:20;;;;;;;10.00;5.97;;;;;;;;;;6254784;28;24502;-87
2024/02/24 16:33:44;;;;;;;91.70;45.13;;;;;;;;;;6255740;28;24417;-93
2024/02/24 16:40:25;;;;;;;91.28;44.67;;;;;;;;;;6227236;28;24822;-84
2024/02/24 16:43:27;;;;;;;10.20;5.50;;;;;;;;;;6249092;28;24480;-86
2024/02/24 16:46:48;;;;;;;7.43;4.78;;;;;;;;;;6279245;28;24435;-86
2024/02/24 16:50:02;;;;;;;7.82;4.50;;;;;;;;;;6289369;28;24509;-85
2024/02/24 16:53:22;;;;;;;7.60;4.27;;;;;;;;;;6275383;28;24498;-86
2024/02/24 16:56:31;;;;;;;8.23;4.22;;;;;;;;;;6255713;28;24881;-86
2024/02/24 16:59:40;;;;;;;6.72;4.03;;;;;;;;;;6305206;28;24489;-85
2024/02/24 17:02:43;;;;;;;5.93;4.10;;;;;;;;;;6313099;28;24984;-84
2024/02/24 17:05:49;;;;;;;6.95;4.45;;;;;;;;;;6303406;28;24437;-85
2024/02/24 17:08:53;;;;;;;9.07;4.93;;;;;;;;;;6298562;28;25055;-86
2024/02/24 17:11:55;;;;;;;6.43;4.47;;;;;;;;;;6285551;28;24807;-83
2024/02/24 17:15:00;;;;;;;8.55;5.07;;;;;;;;;;6279976;28;24794;-86
2024/02/24 17:18:04;;;;;;;6.97;4.40;;;;;;;;;;6273413;28;24427;-86
2024/02/24 17:21:08;;;;;;;7.50;4.37;;;;;;;;;;6302694;28;22164;-84
2024/02/24 17:24:11;;;;;;;7.37;4.80;;;;;;;;;;6303634;28;24481;-84
2024/02/24 17:27:16;;;;;;;7.47;4.60;;;;;;;;;;6305998;28;24422;-87
2024/02/24 17:30:28;;;;;;;6.93;4.60;;;;;;;;;;6302581;28;24888;-84
2024/02/24 17:33:35;;;;;;;7.10;4.75;;;;;;;;;;6317474;28;24429;-84
2024/02/24 17:36:54;;;;;;;8.10;5.00;;;;;;;;;;6298244;28;24443;-85
2024/02/24 17:39:58;;;;;;;8.52;5.07;;;;;;;;;;6282972;28;24444;-84
2024/02/24 17:43:03;;;;;;;7.27;4.67;;;;;;;;;;6292195;28;24430;-84
2024/02/24 17:46:05;;;;;;;6.97;4.93;;;;;;;;;;6310578;28;24442;-86
2024/02/24 17:49:09;;;;;;;9.25;4.70;;;;;;;;;;6293202;28;24438;-84
2024/02/24 17:52:11;;;;;;;6.90;4.43;;;;;;;;;;6291067;28;24434;-87
2024/02/24 17:58:39;;;;;;;6.65;3.67;;;;;;;;;;6296187;28;24430;-85
2024/02/24 18:01:47;;;;;;;7.67;4.17;;;;;;;;;;6290610;28;24419;-84
2024/02/24 18:04:50;;;;;;;6.22;3.85;;;;;;;;;;6319117;28;24421;-86
2024/02/24 18:07:53;;;;;;;6.93;3.80;;;;;;;;;;6322620;28;24825;-85
2024/02/24 18:10:55;;;;;;;5.80;3.30;;;;;;;;;;6322442;28;24426;-84
2024/02/24 18:13:57;;;;;;;5.03;3.50;;;;;;;;;;6319280;28;24470;-84
2024/02/24 18:16:59;;;;;;;6.20;3.83;;;;;;;;;;6303429;28;24430;-84
2024/02/24 18:20:09;;;;;;;6.57;3.60;;;;;;;;;;6323170;28;24624;-85
2024/02/24 18:23:11;;;;;;;5.40;3.50;;;;;;;;;;6320694;28;24422;-85
2024/02/24 18:26:13;;;;;;;7.80;3.70;;;;;;;;;;6328766;28;24488;-85
2024/02/24 18:29:18;;;;;;;5.60;3.35;;;;;;;;;;6334735;28;24430;-84
2024/02/24 18:32:20;;;;;;;5.22;3.30;;;;;;;;;;6309789;28;24488;-85
2024/02/24 18:35:23;;;;;;;5.72;3.47;;;;;;;;;;6308096;28;25119;-87
2024/02/24 18:38:25;;;;;;;7.05;3.80;;;;;;;;;;6304666;28;25379;-84
2024/02/24 18:41:29;;;;;;;5.38;3.53;;;;;;;;;;6301204;28;24615;-85
2024/02/24 18:44:34;;;;;;;5.53;3.13;;;;;;;;;;6297157;28;24445;-84
2024/02/24 18:51:00;;;;;;;5.83;3.80;;;;;;;;;;6290882;28;24414;-84
2024/02/24 18:54:08;;;;;;;5.15;3.47;;;;;;;;;;6306265;28;24852;-84
2024/02/24 18:57:10;;;;;;;6.20;3.38;;;;;;;;;;6296667;28;24506;-84
2024/02/24 19:00:15;;;;;;;7.35;3.47;;;;;;;;;;6315429;28;24439;-84
2024/02/24 19:03:30;;;;;;;5.30;3.37;;;;;;;;;;6308211;28;24489;-83
2024/02/24 19:06:36;;;;;;;5.95;3.65;;;;;;;;;;6295742;28;24665;-84
2024/02/24 19:09:38;;;;;;;5.47;2.92;;;;;;;;;;6270463;28;24434;-84
2024/02/24 19:12:46;;;;;;;5.47;3.20;;;;;;;;;;6296019;28;24840;-84
2024/02/24 19:16:04;;;;;;;;;;;;;;;;;;;;;
2024/02/24 19:19:25;;;;;;;4.53;3.20;;;;;;;;;;6288271;28;24430;-86
2024/02/24 19:22:32;;;;;;;4.47;3.00;;;;;;;;;;6298380;28;25133;-86
2024/02/24 19:25:41;;;;;;;4.15;3.10;;;;;;;;;;6319230;28;24836;-83
2024/02/24 19:28:46;;;;;;;4.00;2.70;;;;;;;;;;6322766;28;24418;-85
2024/02/24 19:32:07;;;;;;;;;;;;;;;;;;;;;
2024/02/24 19:35:15;;;;;;;3.90;2.50;;;;;;;;;;6307799;28;24421;-85